This is the latest recevied weather packets stored in our database for station/object MUGM. If no packets are shown the sender has not sent any weather packets the latest 1 day(s).
| Time | Temp. | Humidity | Pressure | Rain* | Wind** | Luminosity | Snow |
|---|---|---|---|---|---|---|---|
| 1778348030 | 30.56° C | 62% | 1014.6 hPa | - | - | - | - |
| 1778346227 | 30.56° C | 62% | 1014.6 hPa | - | - | - | - |
| 1778344428 | 31.67° C | 59% | 1014.9 hPa | - | - | - | - |
| 1778343828 | 31.67° C | 59% | 1014.9 hPa | - | - | - | - |
| 1778342034 | 31.67° C | 55% | 1014.6 hPa | - | - | - | - |
| 1778341426 | 31.67° C | 55% | 1014.6 hPa | - | - | - | - |
| 1778340230 | 31.67° C | 55% | 1014.6 hPa | - | - | - | - |
| 1778339034 | 31.67° C | 55% | 1014.6 hPa | - | - | - | - |
| 1778337824 | 28.89° C | 62% | 1014.9 hPa | - | - | - | - |
| 1778336025 | 28.89° C | 62% | 1014.9 hPa | - | - | - | - |
| 1778334825 | 26.67° C | 74% | 1014.9 hPa | - | - | - | - |
| 1778331825 | 26.67° C | 74% | 1014.9 hPa | - | - | - | - |
| 1778331227 | 25° C | 83% | 1014.6 hPa | - | - | - | - |
| 1778328828 | 25° C | 83% | 1014.6 hPa | - | - | - | - |
| 1778327624 | 22.78° C | 88% | 1013.9 hPa | - | - | - | - |
| 1778327028 | 22.78° C | 88% | 1013.9 hPa | - | - | - | - |
| 1778326423 | 22.78° C | 88% | 1013.9 hPa | - | - | - | - |
| 1778325828 | 22.78° C | 88% | 1013.9 hPa | - | - | - | - |
| 1778325227 | 22.78° C | 88% | 1013.9 hPa | - | - | - | - |
| 1778324026 | 23.89° C | 83% | 1013.5 hPa | - | - | - | - |
| 1778323431 | 23.89° C | 83% | 1013.5 hPa | - | - | - | - |
| 1778322228 | 23.89° C | 83% | 1013.5 hPa | - | - | - | - |
* Rain since midnight (hover to see other rain measurements)
** Current wind speed in m/s (hover to see current wind gust speed)